Time;durP1;ratioP1;P1;durP2;ratioP2;P2;SDS_P1;SDS_P2;PMS_P1;PMS_P2;Temp;Humidity;BMP_temperature;BMP_pressure;BME280_temperature;BME280_humidity;BME280_pressure;Samples;Min_cycle;Max_cycle;Signal;HPM_P1;HPM_P2
2021/11/23 00:00:54;;;;;;;26.12;19.90;;;;;;;11.72;58.65;101655.80;1730861;81;21050;-65
2021/11/23 00:03:20;;;;;;;22.95;19.82;;;;;;;11.73;58.66;101656.20;1732246;81;21050;-60
2021/11/23 00:05:48;;;;;;;21.85;18.65;;;;;;;11.76;58.65;101657.48;1737207;81;21090;-58
2021/11/23 00:08:15;;;;;;;24.65;19.80;;;;;;;11.78;58.43;101663.11;1735164;81;20984;-60
2021/11/23 00:10:43;;;;;;;27.77;19.82;;;;;;;11.75;58.37;101671.39;1733287;81;21016;-62
2021/11/23 00:13:11;;;;;;;26.62;20.72;;;;;;;11.73;58.48;101673.16;1731963;81;21028;-61
2021/11/23 00:15:38;;;;;;;22.20;19.15;;;;;;;11.74;58.50;101673.59;1733554;81;21051;-64
2021/11/23 00:18:10;;;;;;;24.80;19.35;;;;;;;11.75;58.48;101677.48;1730179;81;21029;-62
2021/11/23 00:20:37;;;;;;;22.93;19.20;;;;;;;11.76;58.51;101675.73;1728073;82;21491;-57
2021/11/23 00:23:04;;;;;;;22.45;18.90;;;;;;;11.73;58.44;101686.19;1688838;84;21079;-61
2021/11/23 00:25:31;;;;;;;23.50;19.67;;;;;;;11.71;58.47;101691.43;1723075;82;21528;-65
2021/11/23 00:27:58;;;;;;;25.08;19.82;;;;;;;11.70;58.58;101691.03;1712864;82;21031;-57
2021/11/23 00:30:25;;;;;;;22.75;19.17;;;;;;;11.69;58.58;101687.11;1726159;82;21050;-63
2021/11/23 00:32:54;;;;;;;24.12;19.05;;;;;;;11.67;58.53;101681.05;1725282;82;21102;-58
2021/11/23 00:35:21;;;;;;;21.85;18.45;;;;;;;11.63;58.61;101687.15;1723560;82;21015;-57
2021/11/23 00:37:50;;;;;;;22.45;18.80;;;;;;;11.62;58.59;101686.74;1724103;82;21062;-57
2021/11/23 00:40:17;;;;;;;23.40;19.15;;;;;;;11.60;58.70;101689.80;1685769;84;21117;-60
2021/11/23 00:42:44;;;;;;;23.05;18.67;;;;;;;11.61;58.73;101690.21;1686013;84;21083;-61
2021/11/23 00:45:11;;;;;;;25.57;19.10;;;;;;;11.60;58.68;101691.11;1687575;84;21124;-63
2021/11/23 00:47:39;;;;;;;26.17;19.20;;;;;;;11.59;58.64;101686.33;1727176;82;21011;-61
2021/11/23 00:50:07;;;;;;;21.97;18.55;;;;;;;11.56;58.74;101678.52;1726341;82;21019;-59
2021/11/23 00:52:34;;;;;;;23.12;19.27;;;;;;;11.56;58.80;101673.78;1732767;82;21527;-66
2021/11/23 00:55:04;;;;;;;22.75;18.32;;;;;;;11.55;58.94;101669.00;1692133;84;21055;-58
2021/11/23 00:57:30;;;;;;;20.77;17.55;;;;;;;11.57;58.89;101669.84;1664579;84;21079;-58
2021/11/23 00:59:58;;;;;;;20.85;17.60;;;;;;;11.58;58.83;101670.71;1702892;82;21743;-57
2021/11/23 01:02:24;;;;;;;22.85;18.85;;;;;;;11.58;58.88;101678.53;1704252;82;21029;-61
2021/11/23 01:04:51;;;;;;;22.70;18.37;;;;;;;11.59;58.88;101675.03;1703983;83;21082;-58
2021/11/23 01:07:18;;;;;;;25.20;19.23;;;;;;;11.61;58.80;101685.00;1673351;82;21102;-57
2021/11/23 01:09:45;;;;;;;20.27;18.02;;;;;;;11.62;58.74;101682.83;1675871;83;21552;-62
2021/11/23 01:12:11;;;;;;;20.90;17.98;;;;;;;11.63;58.68;101684.54;1673813;84;21047;-57
2021/11/23 01:14:37;;;;;;;21.25;17.00;;;;;;;11.63;58.72;101687.15;1669487;84;21039;-64
2021/11/23 01:17:04;;;;;;;22.62;18.82;;;;;;;11.64;58.66;101689.77;1671288;84;21061;-57
2021/11/23 01:19:31;;;;;;;21.70;18.32;;;;;;;11.65;58.63;101687.99;1667762;84;21066;-57
2021/11/23 01:21:57;;;;;;;23.27;18.52;;;;;;;11.63;58.66;101692.36;1670413;84;21006;-60
2021/11/23 01:24:24;;;;;;;23.52;17.73;;;;;;;11.63;58.68;101697.58;1672305;84;21534;-60
2021/11/23 01:26:51;;;;;;;21.27;17.52;;;;;;;11.62;58.65;101695.44;1668120;85;21061;-58
2021/11/23 01:29:18;;;;;;;21.45;18.32;;;;;;;11.61;58.69;101695.42;1664378;84;21002;-58
2021/11/23 01:31:44;;;;;;;21.45;17.70;;;;;;;11.61;58.72;101694.99;1667653;84;21002;-61
2021/11/23 01:34:12;;;;;;;20.77;17.50;;;;;;;11.61;58.77;101686.30;1672342;84;22082;-57
2021/11/23 01:36:39;;;;;;;21.35;18.25;;;;;;;11.61;58.84;101694.13;1668143;85;21128;-57
2021/11/23 01:39:06;;;;;;;27.13;18.35;;;;;;;11.62;58.87;101695.86;1661353;84;21077;-57
2021/11/23 01:41:32;;;;;;;20.62;17.60;;;;;;;11.61;58.90;101689.78;1670604;84;21101;-61
2021/11/23 01:43:59;;;;;;;21.12;17.55;;;;;;;11.60;58.84;101692.41;1672476;84;21073;-57
2021/11/23 01:46:25;;;;;;;22.45;18.65;;;;;;;11.58;58.87;101685.05;1672005;84;21025;-58
2021/11/23 01:48:54;;;;;;;20.50;17.67;;;;;;;11.58;58.94;101679.84;1663593;84;21042;-57
2021/11/23 01:51:20;;;;;;;21.62;17.87;;;;;;;11.58;58.97;101685.05;1670648;84;21638;-60
2021/11/23 01:53:47;;;;;;;22.32;18.25;;;;;;;11.58;59.05;101688.95;1678779;84;21002;-61
2021/11/23 01:56:14;;;;;;;22.15;18.80;;;;;;;11.58;59.09;101694.17;1702455;82;21021;-58
2021/11/23 01:58:41;;;;;;;22.42;17.25;;;;;;;11.61;59.09;101688.91;1684863;83;21070;-61
2021/11/23 02:01:08;;;;;;;24.55;19.45;;;;;;;11.61;59.07;101688.91;1705544;82;21518;-57
2021/11/23 02:03:36;;;;;;;21.48;18.65;;;;;;;11.63;59.09;101691.93;1694016;82;21022;-58
2021/11/23 02:06:03;;;;;;;24.07;19.35;;;;;;;11.64;59.07;101688.89;1718410;81;21035;-58
2021/11/23 02:08:30;;;;;;;20.75;17.73;;;;;;;11.62;58.98;101694.56;1728826;82;21026;-65
2021/11/23 02:10:56;;;;;;;25.10;19.45;;;;;;;11.56;59.11;101695.94;1737405;81;20999;-60
2021/11/23 02:13:23;;;;;;;21.90;18.35;;;;;;;11.53;59.23;101693.34;1732544;81;20999;-61
2021/11/23 02:15:50;;;;;;;22.35;17.42;;;;;;;11.48;59.32;101692.55;1731622;81;21015;-58
2021/11/23 02:18:21;;;;;;;24.02;18.95;;;;;;;11.42;59.48;101692.15;1731611;81;21046;-57
2021/11/23 02:20:48;;;;;;;23.42;19.35;;;;;;;11.39;59.54;101691.77;1732282;81;21003;-62
2021/11/23 02:23:15;;;;;;;22.22;18.20;;;;;;;11.39;59.64;101693.07;1724980;82;21555;-61
2021/11/23 02:25:43;;;;;;;23.55;19.12;;;;;;;11.41;59.63;101701.73;1732670;81;21550;-57
2021/11/23 02:28:11;;;;;;;21.50;17.85;;;;;;;11.42;59.72;101702.14;1720579;81;20984;-57
2021/11/23 02:30:45;;;;;;;22.27;17.87;;;;;;;11.45;59.69;101699.52;1733175;82;20995;-58
2021/11/23 02:33:14;;;;;;;23.02;17.45;;;;;;;11.46;59.51;101698.63;1674849;84;21113;-61
2021/11/23 02:35:40;;;;;;;21.33;17.37;;;;;;;11.43;59.41;101702.58;1701250;83;21101;-64
2021/11/23 02:38:07;;;;;;;22.58;18.23;;;;;;;11.39;59.39;101701.32;1698906;83;21066;-61
2021/11/23 02:40:34;;;;;;;25.17;18.30;;;;;;;11.35;59.54;101708.28;1698976;83;21097;-61
2021/11/23 02:43:01;;;;;;;23.27;18.12;;;;;;;11.34;59.57;101709.17;1699104;83;21675;-63
2021/11/23 02:45:28;;;;;;;22.75;17.85;;;;;;;11.33;59.64;101709.20;1699039;83;21077;-58
2021/11/23 02:47:58;;;;;;;20.20;17.75;;;;;;;11.32;59.65;101712.67;1700373;83;21026;-61
2021/11/23 02:50:25;;;;;;;23.47;18.20;;;;;;;11.31;59.67;101719.61;1702089;83;21058;-61
2021/11/23 02:52:52;;;;;;;23.57;18.00;;;;;;;11.31;59.73;101719.61;1697944;84;21095;-58
2021/11/23 02:55:21;;;;;;;24.55;18.23;;;;;;;11.32;59.75;101716.58;1696131;83;21022;-60
2021/11/23 02:57:48;;;;;;;23.98;18.80;;;;;;;11.31;59.77;101727.42;1694408;83;20994;-59
2021/11/23 03:00:21;;;;;;;21.48;17.25;;;;;;;11.32;59.74;101723.96;1701989;83;21549;-58
2021/11/23 03:02:48;;;;;;;22.42;18.40;;;;;;;11.32;59.65;101729.17;1701058;83;21124;-66
2021/11/23 03:05:18;;;;;;;24.77;19.25;;;;;;;11.31;59.69;101722.22;1699259;83;21521;-61
2021/11/23 03:07:46;;;;;;;25.82;19.00;;;;;;;11.31;59.79;101726.59;1700368;83;21046;-59
2021/11/23 03:10:14;;;;;;;22.95;17.60;;;;;;;11.30;59.73;101731.36;1701072;84;21041;-60
2021/11/23 03:12:41;;;;;;;21.27;18.55;;;;;;;11.29;59.74;101731.79;1701781;83;21046;-63
2021/11/23 03:15:10;;;;;;;22.87;18.02;;;;;;;11.30;59.76;101738.75;1698255;84;21038;-66
2021/11/23 03:17:37;;;;;;;23.15;18.77;;;;;;;11.29;59.79;101734.40;1706246;83;21083;-60
2021/11/23 03:20:06;;;;;;;22.52;18.17;;;;;;;11.30;59.79;101742.66;1699068;83;21049;-58
2021/11/23 03:22:34;;;;;;;20.80;17.67;;;;;;;11.32;59.80;101733.08;1698913;83;21078;-61
2021/11/23 03:25:03;;;;;;;20.80;17.35;;;;;;;11.38;59.72;101736.93;1695837;84;21085;-59
2021/11/23 03:27:30;;;;;;;21.95;17.77;;;;;;;11.41;59.67;101740.83;1701500;84;21086;-58
2021/11/23 03:29:57;;;;;;;20.08;17.00;;;;;;;11.43;59.59;101742.98;1708689;83;21003;-61
2021/11/23 03:32:24;;;;;;;19.32;16.52;;;;;;;11.48;59.52;101744.67;1738971;81;21070;-58
2021/11/23 03:34:51;;;;;;;17.98;15.13;;;;;;;11.52;59.44;101743.30;1732728;81;21067;-60
2021/11/23 03:37:21;;;;;;;17.52;15.40;;;;;;;11.53;59.26;101738.95;1733745;81;21035;-61
2021/11/23 03:39:49;;;;;;;18.32;15.58;;;;;;;11.57;59.16;101739.34;1728054;81;21034;-61
2021/11/23 03:42:16;;;;;;;18.05;15.13;;;;;;;11.60;59.02;101744.55;1734778;81;21015;-65
2021/11/23 03:44:44;;;;;;;17.60;15.05;;;;;;;11.60;58.83;101741.94;1733316;81;21500;-63
2021/11/23 03:47:11;;;;;;;18.67;15.13;;;;;;;11.58;58.85;101751.52;1731898;81;21515;-60
2021/11/23 03:49:40;;;;;;;19.55;16.77;;;;;;;11.58;58.85;101751.52;1731384;81;20967;-61
2021/11/23 03:52:07;;;;;;;18.92;16.05;;;;;;;11.60;58.71;101761.49;1734823;82;21512;-57
2021/11/23 03:54:35;;;;;;;17.37;15.58;;;;;;;11.59;58.65;101755.84;1723278;81;21085;-59
2021/11/23 03:57:02;;;;;;;20.43;16.45;;;;;;;11.57;58.62;101753.25;1730673;81;21559;-61
2021/11/23 03:59:29;;;;;;;18.60;15.43;;;;;;;11.57;58.60;101757.59;1730687;82;21003;-61
2021/11/23 04:01:55;;;;;;;18.42;15.55;;;;;;;11.58;58.60;101756.73;1737776;81;21043;-57
2021/11/23 04:04:22;;;;;;;17.52;15.05;;;;;;;11.56;58.57;101754.58;1732635;81;21543;-60
2021/11/23 04:06:50;;;;;;;16.55;14.53;;;;;;;11.55;58.53;101748.92;1731851;81;21047;-58
2021/11/23 04:09:17;;;;;;;18.92;15.48;;;;;;;11.52;58.51;101747.67;1731449;81;20993;-61
2021/11/23 04:11:43;;;;;;;17.87;15.48;;;;;;;11.48;58.55;101749.89;1731218;81;21061;-63
2021/11/23 04:14:10;;;;;;;18.37;15.20;;;;;;;11.42;58.69;101750.36;1730754;81;21071;-60
2021/11/23 04:16:37;;;;;;;17.30;14.85;;;;;;;11.39;58.85;101750.41;1732603;81;21027;-58
2021/11/23 04:19:05;;;;;;;18.17;15.70;;;;;;;11.38;58.87;101752.56;1733979;81;21054;-60
2021/11/23 04:21:32;;;;;;;19.05;15.88;;;;;;;11.38;58.97;101757.78;1733530;81;21030;-59
2021/11/23 04:23:59;;;;;;;16.87;15.08;;;;;;;11.40;58.95;101762.53;1739577;81;21499;-60
2021/11/23 04:26:26;;;;;;;16.62;14.63;;;;;;;11.42;58.85;101762.08;1734461;82;20964;-57
2021/11/23 04:28:53;;;;;;;17.37;14.83;;;;;;;11.43;58.81;101764.26;1720899;81;21042;-58
2021/11/23 04:31:19;;;;;;;18.32;15.80;;;;;;;11.43;58.75;101761.22;1731861;81;21073;-60
2021/11/23 04:33:47;;;;;;;18.55;15.65;;;;;;;11.42;58.79;101763.38;1733214;81;21510;-57
2021/11/23 04:36:13;;;;;;;18.82;15.58;;;;;;;11.44;58.81;101774.66;1733736;82;21006;-58
2021/11/23 04:38:40;;;;;;;18.15;14.95;;;;;;;11.46;58.74;101779.42;1717068;82;20991;-60
2021/11/23 04:41:06;;;;;;;18.98;15.13;;;;;;;11.48;58.77;101776.36;1733761;81;21074;-60
2021/11/23 04:43:34;;;;;;;18.23;15.80;;;;;;;11.51;58.66;101784.59;1732883;81;21011;-60
2021/11/23 04:46:01;;;;;;;17.85;14.90;;;;;;;11.52;58.65;101781.56;1720694;81;21043;-63
2021/11/23 04:48:28;;;;;;;18.77;15.53;;;;;;;11.54;58.58;101781.10;1737800;81;21019;-57
2021/11/23 04:50:55;;;;;;;18.75;14.28;;;;;;;11.55;58.47;101782.81;1729332;82;21046;-60
2021/11/23 04:53:23;;;;;;;15.90;14.15;;;;;;;11.56;58.45;101784.56;1738122;81;21531;-61
2021/11/23 04:55:51;;;;;;;17.12;14.63;;;;;;;11.54;58.43;101786.31;1733842;81;21556;-56
2021/11/23 04:58:18;;;;;;;21.10;14.98;;;;;;;11.51;58.50;101791.54;1723580;81;21049;-58
2021/11/23 05:00:45;;;;;;;19.15;15.75;;;;;;;11.49;58.55;101792.87;1731012;81;21071;-61
2021/11/23 05:03:12;;;;;;;18.67;14.95;;;;;;;11.48;58.53;101797.20;1734037;81;21507;-61
2021/11/23 05:05:39;;;;;;;17.57;15.55;;;;;;;11.45;58.59;101790.73;1733781;81;21054;-57
2021/11/23 05:08:05;;;;;;;20.20;16.70;;;;;;;11.46;58.65;101795.05;1734120;81;21027;-59
2021/11/23 05:10:32;;;;;;;17.82;15.18;;;;;;;11.49;58.67;101799.38;1734273;81;21006;-57
2021/11/23 05:12:59;;;;;;;17.37;15.13;;;;;;;11.53;58.68;101800.21;1735150;82;21034;-62
2021/11/23 05:15:27;;;;;;;17.37;14.50;;;;;;;11.55;58.68;101801.06;1736079;81;21011;-57
2021/11/23 05:17:54;;;;;;;17.85;15.43;;;;;;;11.59;58.61;101800.16;1733018;81;21035;-58
2021/11/23 05:20:21;;;;;;;17.77;14.90;;;;;;;11.63;58.52;101801.85;1733044;81;21054;-62
2021/11/23 05:22:48;;;;;;;18.20;14.95;;;;;;;11.65;58.50;101802.70;1733080;81;21015;-58
2021/11/23 05:25:15;;;;;;;17.10;15.30;;;;;;;11.67;58.51;101803.16;1733674;81;20995;-57
2021/11/23 05:27:42;;;;;;;16.90;14.30;;;;;;;11.72;58.39;101805.72;1727638;82;21092;-58
2021/11/23 05:30:11;;;;;;;17.32;14.68;;;;;;;11.75;58.28;101814.80;1736108;81;21031;-59
2021/11/23 05:32:40;;;;;;;16.55;14.55;;;;;;;11.76;58.29;101806.11;1730993;81;21003;-58
2021/11/23 05:35:08;;;;;;;16.50;13.53;;;;;;;11.78;58.20;101814.78;1733438;81;21039;-57
2021/11/23 05:37:34;;;;;;;15.98;14.28;;;;;;;11.79;58.20;101819.97;1733210;81;21071;-61
2021/11/23 05:40:01;;;;;;;14.98;13.38;;;;;;;11.77;58.25;101817.82;1733910;81;21054;-62
2021/11/23 05:42:28;;;;;;;17.67;15.35;;;;;;;11.78;58.31;101823.91;1729908;81;21522;-61
2021/11/23 05:44:55;;;;;;;15.38;13.78;;;;;;;11.81;58.27;101831.72;1736634;81;21055;-65
2021/11/23 05:47:22;;;;;;;15.63;13.70;;;;;;;11.81;58.26;101831.25;1735237;81;21038;-57
2021/11/23 05:49:49;;;;;;;15.75;13.93;;;;;;;11.80;58.26;101828.67;1734408;81;21082;-58
2021/11/23 05:52:18;;;;;;;15.15;13.45;;;;;;;11.82;58.19;101834.73;1735121;82;20999;-61
2021/11/23 05:54:46;;;;;;;18.10;13.98;;;;;;;11.82;58.22;101835.61;1723830;81;21034;-57
2021/11/23 05:57:13;;;;;;;15.48;13.35;;;;;;;11.83;58.22;101844.30;1732551;81;21022;-58
2021/11/23 05:59:41;;;;;;;16.02;13.03;;;;;;;11.83;58.19;101841.70;1735794;82;21090;-57
2021/11/23 06:02:07;;;;;;;15.18;13.58;;;;;;;11.84;58.19;101847.32;1738827;81;21022;-58
2021/11/23 06:04:34;;;;;;;16.70;13.58;;;;;;;11.86;58.14;101845.12;1736499;81;21007;-56
2021/11/23 06:07:01;;;;;;;16.60;14.40;;;;;;;11.86;58.12;101852.08;1734071;81;21090;-63
2021/11/23 06:09:27;;;;;;;16.55;13.78;;;;;;;11.86;58.26;101859.91;1733275;81;21066;-57
2021/11/23 06:11:56;;;;;;;18.35;13.10;;;;;;;11.89;58.30;101857.28;1733132;81;21574;-60
2021/11/23 06:14:23;;;;;;;15.32;13.68;;;;;;;11.91;58.20;101867.26;1733423;81;21475;-65
2021/11/23 06:16:49;;;;;;;16.55;13.13;;;;;;;11.94;58.19;101863.30;1733718;81;21047;-56
2021/11/23 06:19:16;;;;;;;15.80;12.47;;;;;;;11.98;58.14;101859.78;1735833;81;21515;-65
2021/11/23 06:21:42;;;;;;;13.93;12.13;;;;;;;12.00;58.06;101863.23;1736606;81;21058;-58
2021/11/23 06:24:10;;;;;;;14.00;12.50;;;;;;;12.01;58.05;101865.82;1732163;82;21046;-61
2021/11/23 06:26:37;;;;;;;14.45;12.60;;;;;;;12.03;58.10;101873.66;1715085;81;21474;-60
2021/11/23 06:29:04;;;;;;;14.73;11.73;;;;;;;12.03;58.04;101871.05;1734434;81;21059;-57
2021/11/23 06:31:31;;;;;;;12.37;10.90;;;;;;;12.05;57.97;101875.38;1736631;81;21491;-60
2021/11/23 06:33:59;;;;;;;12.47;11.18;;;;;;;12.06;57.85;101876.22;1734354;81;21010;-60
2021/11/23 06:36:25;;;;;;;12.28;10.58;;;;;;;12.05;57.79;101877.11;1734106;82;20986;-60
2021/11/23 06:38:52;;;;;;;13.13;11.40;;;;;;;12.04;57.74;101880.59;1723401;81;21464;-57
2021/11/23 06:41:19;;;;;;;12.73;11.43;;;;;;;12.03;57.82;101886.70;1736693;81;21074;-63
2021/11/23 06:43:46;;;;;;;13.00;11.12;;;;;;;12.04;57.87;101889.72;1735401;81;21035;-61
2021/11/23 06:46:12;;;;;;;11.85;10.53;;;;;;;12.08;57.85;101895.33;1734026;81;21026;-56
2021/11/23 06:48:39;;;;;;;13.20;10.72;;;;;;;12.10;57.77;101897.05;1735508;81;21074;-61
2021/11/23 06:51:06;;;;;;;13.85;10.00;;;;;;;12.12;57.65;101894.41;1731778;82;21476;-63
2021/11/23 06:53:33;;;;;;;14.75;11.18;;;;;;;12.13;57.67;101889.20;1738271;81;21058;-56
2021/11/23 06:56:01;;;;;;;13.08;10.55;;;;;;;12.17;57.74;101886.98;1734934;81;21022;-56
2021/11/23 06:58:27;;;;;;;12.05;10.30;;;;;;;12.23;57.72;101886.92;1728532;81;21031;-60
2021/11/23 07:00:55;;;;;;;11.73;10.08;;;;;;;12.29;57.66;101885.98;1732836;81;21507;-62
2021/11/23 07:03:22;;;;;;;13.13;10.75;;;;;;;12.35;57.57;101887.22;1734918;81;21058;-57
2021/11/23 07:05:49;;;;;;;11.88;9.95;;;;;;;12.39;57.45;101888.91;1736478;81;21011;-56
2021/11/23 07:08:17;;;;;;;10.78;9.65;;;;;;;12.42;57.56;101881.06;1735041;81;21042;-57
2021/11/23 07:10:45;;;;;;;10.48;9.00;;;;;;;12.48;57.62;101887.52;1725179;81;21121;-55
2021/11/23 07:13:12;;;;;;;11.15;9.90;;;;;;;12.54;57.59;101884.83;1732584;81;21094;-55
2021/11/23 07:15:39;;;;;;;11.22;9.78;;;;;;;12.58;57.49;101887.83;1732979;81;21031;-56
2021/11/23 07:18:05;;;;;;;10.70;9.28;;;;;;;12.66;57.46;101893.82;1737995;81;21503;-57
2021/11/23 07:20:33;;;;;;;9.90;8.63;;;;;;;12.74;57.17;101894.59;1731778;81;21023;-60
2021/11/23 07:23:00;;;;;;;10.55;8.35;;;;;;;12.80;57.04;101893.63;1730930;81;21007;-59
2021/11/23 07:25:27;;;;;;;9.55;8.63;;;;;;;12.85;56.92;101897.94;1732393;81;21021;-61
2021/11/23 07:27:53;;;;;;;9.55;8.25;;;;;;;12.89;56.78;101894.40;1724725;82;21121;-55
2021/11/23 07:30:20;;;;;;;8.43;7.62;;;;;;;12.92;56.61;101899.56;1733730;81;21039;-59
2021/11/23 07:32:47;;;;;;;6.37;4.42;;;;;;;12.95;56.43;101899.54;1730478;81;21101;-60
2021/11/23 07:35:18;;;;;;;3.33;3.02;;;;;;;12.98;55.86;101905.17;1730659;81;21002;-57
2021/11/23 07:37:43;;;;;;;2.87;2.25;;;;;;;12.97;55.21;101910.83;1730514;81;21071;-56
2021/11/23 07:40:11;;;;;;;2.50;2.30;;;;;;;12.95;54.71;101912.60;1731769;81;20983;-61
2021/11/23 07:42:40;;;;;;;8.98;2.67;;;;;;;12.93;54.41;101914.38;1731510;81;21487;-59
2021/11/23 07:45:08;;;;;;;3.58;2.80;;;;;;;12.95;54.33;101920.44;1729822;81;21475;-55
2021/11/23 07:47:36;;;;;;;2.42;2.22;;;;;;;12.98;54.31;101928.22;1735087;81;21018;-55
2021/11/23 07:50:04;;;;;;;5.28;2.83;;;;;;;12.99;54.00;101924.74;1733717;81;21523;-58
2021/11/23 07:52:30;;;;;;;3.27;2.70;;;;;;;13.01;53.85;101926.89;1731226;82;21496;-54
2021/11/23 07:54:57;;;;;;;2.60;2.40;;;;;;;13.00;53.58;101923.84;1688572;84;21032;-57
2021/11/23 07:57:23;;;;;;;3.30;2.77;;;;;;;12.98;53.38;101924.77;1693309;84;20975;-55
2021/11/23 07:59:51;;;;;;;5.10;2.70;;;;;;;12.94;53.30;101927.00;1697440;84;21034;-58
2021/11/23 08:02:18;;;;;;;4.83;2.85;;;;;;;12.92;53.28;101925.69;1700065;84;21552;-54
2021/11/23 08:04:44;;;;;;;3.90;2.42;;;;;;;12.92;53.56;101925.69;1700855;84;20975;-53
2021/11/23 08:07:11;;;;;;;2.83;2.22;;;;;;;12.94;53.26;101927.84;1694481;84;21014;-55
2021/11/23 08:09:37;;;;;;;3.33;2.05;;;;;;;12.98;53.11;101925.61;1697633;83;20983;-53
2021/11/23 08:12:06;;;;;;;2.10;1.90;;;;;;;13.01;52.96;101928.20;1697378;83;21042;-57
2021/11/23 08:14:32;;;;;;;3.95;1.92;;;;;;;13.02;52.81;101926.45;1699343;84;21514;-58
2021/11/23 08:17:00;;;;;;;4.05;1.95;;;;;;;13.03;52.68;101931.66;1696563;84;21078;-58
2021/11/23 08:19:29;;;;;;;2.20;1.60;;;;;;;13.04;52.74;101926.86;1693663;84;21010;-57
2021/11/23 08:21:55;;;;;;;3.08;2.25;;;;;;;13.08;52.56;101929.45;1697834;83;21051;-59
2021/11/23 08:24:22;;;;;;;4.25;1.82;;;;;;;13.12;52.47;101932.45;1693056;83;21069;-55
2021/11/23 08:26:49;;;;;;;1.80;1.70;;;;;;;13.13;52.51;101931.58;1695597;84;21066;-55
2021/11/23 08:29:16;;;;;;;2.08;1.87;;;;;;;13.13;51.97;101939.41;1691664;83;21542;-57
2021/11/23 08:31:43;;;;;;;3.22;2.33;;;;;;;13.16;52.00;101943.28;1696887;84;21018;-54
2021/11/23 08:34:11;;;;;;;2.85;2.25;;;;;;;13.19;52.06;101933.64;1700551;84;21018;-59
2021/11/23 08:36:38;;;;;;;2.25;2.05;;;;;;;13.21;51.85;101936.25;1700311;84;21069;-55
2021/11/23 08:39:06;;;;;;;3.52;2.00;;;;;;;13.23;51.53;101927.95;1698528;84;21042;-54
2021/11/23 08:41:32;;;;;;;2.83;1.92;;;;;;;13.25;51.60;101928.79;1699491;83;21499;-53
2021/11/23 08:43:59;;;;;;;4.17;2.15;;;;;;;13.27;51.32;101934.86;1698314;84;20983;-60
2021/11/23 08:46:26;;;;;;;2.45;2.25;;;;;;;13.28;51.30;101939.19;1701821;83;21517;-59
2021/11/23 08:48:52;;;;;;;4.72;2.52;;;;;;;13.30;51.21;101937.41;1700769;84;21070;-54
2021/11/23 08:51:23;;;;;;;2.98;2.12;;;;;;;13.29;50.78;101939.63;1697554;84;20955;-54
2021/11/23 08:53:47;;;;;;;3.22;2.35;;;;;;;13.29;50.79;101942.23;1684456;84;21065;-57
2021/11/23 08:56:14;;;;;;;3.05;2.40;;;;;;;13.28;50.81;101937.88;1698578;84;21057;-55
2021/11/23 08:58:45;;;;;;;3.10;2.33;;;;;;;13.28;50.87;101939.19;1703981;84;21018;-58
2021/11/23 09:01:11;;;;;;;2.45;2.25;;;;;;;13.25;50.79;101939.25;1697914;83;21042;-57
2021/11/23 09:03:39;;;;;;;3.70;2.37;;;;;;;13.23;50.67;101944.47;1697476;84;21038;-59
2021/11/23 09:06:06;;;;;;;3.47;2.70;;;;;;;13.23;50.49;101950.16;1696647;83;20959;-57
2021/11/23 09:08:37;;;;;;;2.80;2.37;;;;;;;13.20;50.38;101948.89;1699468;84;21021;-55
2021/11/23 09:11:01;;;;;;;4.12;2.37;;;;;;;13.23;50.52;101952.78;1697635;84;21074;-58
2021/11/23 09:13:29;;;;;;;3.95;2.92;;;;;;;13.23;50.62;101955.39;1698740;84;22345;-60
2021/11/23 09:15:55;;;;;;;4.03;3.40;;;;;;;13.23;50.87;101956.70;1699320;83;21002;-58
2021/11/23 09:18:23;;;;;;;5.62;4.78;;;;;;;13.26;51.10;101956.64;1699386;84;21074;-61
2021/11/23 09:20:50;;;;;;;13.90;9.05;;;;;;;13.28;51.23;101960.09;1701026;83;21471;-56
2021/11/23 09:23:18;;;;;;;4.78;4.28;;;;;;;13.28;51.29;101967.94;1700412;84;21011;-54
2021/11/23 09:25:44;;;;;;;7.67;5.78;;;;;;;13.29;51.41;101967.06;1692636;84;21037;-61
2021/11/23 09:28:11;;;;;;;5.58;3.47;;;;;;;13.33;51.48;101971.37;1691319;83;21038;-61
2021/11/23 09:30:39;;;;;;;9.28;5.15;;;;;;;13.33;51.20;101964.83;1720252;82;21023;-59
2021/11/23 09:33:06;;;;;;;9.18;4.58;;;;;;;13.32;51.38;101964.39;1737472;81;21007;-55
2021/11/23 09:35:33;;;;;;;12.30;6.62;;;;;;;13.32;51.17;101961.78;1735487;81;21027;-60
2021/11/23 09:38:01;;;;;;;4.92;3.95;;;;;;;13.30;51.25;101963.12;1732935;81;21039;-55
2021/11/23 09:40:29;;;;;;;12.60;7.83;;;;;;;13.26;51.15;101959.25;1733073;81;20971;-55
2021/11/23 09:42:56;;;;;;;8.30;4.42;;;;;;;13.22;50.99;101963.67;1732867;81;21073;-59
2021/11/23 09:45:23;;;;;;;41.92;25.20;;;;;;;13.14;51.24;101967.27;1732934;81;20991;-55
2021/11/23 09:47:50;;;;;;;40.95;24.72;;;;;;;13.09;51.90;101972.55;1733351;81;21527;-55
2021/11/23 09:50:17;;;;;;;11.25;9.58;;;;;;;13.04;52.13;101973.90;1729804;81;21011;-59
2021/11/23 09:52:44;;;;;;;6.58;5.95;;;;;;;12.99;52.10;101977.00;1731733;82;21051;-59
2021/11/23 09:55:12;;;;;;;17.95;11.05;;;;;;;12.98;52.41;101976.56;1728467;81;20983;-56
2021/11/23 09:57:39;;;;;;;11.85;6.75;;;;;;;12.97;52.57;101980.07;1730037;81;21518;-61
2021/11/23 10:00:12;;;;;;;5.20;4.58;;;;;;;12.98;52.61;101984.39;1733364;81;20983;-57
2021/11/23 10:02:38;;;;;;;4.37;3.20;;;;;;;13.00;52.17;101984.40;1669107;84;21559;-54
2021/11/23 10:05:09;;;;;;;5.78;3.98;;;;;;;12.99;52.18;101986.57;1672773;85;21012;-58
2021/11/23 10:07:41;;;;;;;3.70;3.40;;;;;;;12.95;52.29;101985.75;1671928;85;21067;-56
2021/11/23 10:10:21;;;;;;;3.83;3.42;;;;;;;12.95;52.11;101991.41;1645163;86;21076;-59
2021/11/23 10:12:57;;;;;;;4.45;3.45;;;;;;;12.93;52.01;101995.36;1645135;86;21048;-55
2021/11/23 10:15:30;;;;;;;3.87;3.58;;;;;;;12.90;51.89;101992.77;1645008;86;21095;-55
2021/11/23 10:18:10;;;;;;;5.08;3.72;;;;;;;12.88;52.05;101993.23;1623548;88;21024;-55
2021/11/23 10:20:40;;;;;;;4.47;4.03;;;;;;;12.86;52.16;101996.30;1622643;87;21583;-56
2021/11/23 10:23:29;;;;;;;4.97;3.83;;;;;;;12.86;52.23;101998.04;1621862;88;21135;-61
2021/11/23 10:26:21;;;;;;;4.10;3.58;;;;;;;12.85;52.00;101997.20;1606291;88;21055;-58
2021/11/23 10:28:50;;;;;;;;;;;;;;;12.86;51.85;102000.65;1611883;88;21076;-55
2021/11/23 10:31:17;;;;;;;3.98;3.58;;;;;;;12.84;51.64;101998.06;1612835;88;20161;-54
2021/11/23 10:33:44;;;;;;;7.47;3.95;;;;;;;12.80;51.55;102000.28;1613453;88;21547;-55
2021/11/23 10:36:15;;;;;;;5.17;4.67;;;;;;;12.78;51.36;102000.75;1611443;89;21079;-55
2021/11/23 10:38:43;;;;;;;4.87;4.37;;;;;;;12.79;51.24;102002.49;1613905;88;21088;-57
2021/11/23 10:41:14;;;;;;;8.50;6.80;;;;;;;12.76;51.15;101998.59;1610063;88;21046;-60
2021/11/23 10:43:42;;;;;;;7.40;6.53;;;;;;;12.73;51.54;102003.87;1610108;88;21124;-54
2021/11/23 10:46:21;;;;;;;10.78;6.45;;;;;;;12.68;52.16;102004.34;1601443;88;21059;-59
2021/11/23 10:48:56;;;;;;;7.72;6.55;;;;;;;12.64;52.47;101996.12;1609933;88;21063;-56
2021/11/23 10:51:23;;;;;;;12.68;9.18;;;;;;;12.63;52.83;102006.13;1609966;88;21071;-58
2021/11/23 10:53:50;;;;;;;12.45;10.03;;;;;;;12.63;53.19;102004.81;1609038;88;21105;-57
2021/11/23 10:56:18;;;;;;;11.55;8.38;;;;;;;12.63;53.27;102003.52;1610247;89;21041;-54
2021/11/23 10:58:48;;;;;;;11.50;8.40;;;;;;;12.64;53.24;102005.26;1609718;88;21128;-60
2021/11/23 11:01:18;;;;;;;8.98;8.05;;;;;;;12.66;53.38;102010.02;1610028;88;21102;-57
2021/11/23 11:03:44;;;;;;;10.38;7.72;;;;;;;12.67;53.10;102005.67;1609867;88;21062;-60
2021/11/23 11:06:11;;;;;;;8.53;6.87;;;;;;;12.68;53.12;102004.34;1648322;84;21004;-55
2021/11/23 11:08:45;;;;;;;10.60;7.97;;;;;;;12.68;53.14;102005.65;1703800;83;21572;-55
2021/11/23 11:11:16;;;;;;;8.60;7.22;;;;;;;12.71;53.21;101999.53;1701161;84;21074;-54
2021/11/23 11:13:49;;;;;;;10.10;7.20;;;;;;;12.73;53.08;102002.56;1680935;83;21027;-59
2021/11/23 11:16:16;;;;;;;8.93;7.62;;;;;;;12.73;52.85;101999.08;1728756;81;21013;-56